Details From SBMQ - MACAPA
To SOCA - Cayenne Rochambeau
Flight Number -
Tags generated
Created
Modified
Stats Distance 297 nm / 549 km
Max Altitude 0 ft / 0 m
Waypoints 2
Social Downloads 3
Likes 0
Share

Download

Looking for another format? Having issues loading an existing format? Contact us
Advertisement - Login to hide

Notes

Basic altitude profile: - Ascent Rate: 500ft/min - Ascent Speed: 90kts - Cruise Altitude: 35000ft - Cruise Speed: 95kts - Descent Rate: 500ft/min - Descent Speed: 100kts Options: - Use NATs: yes - Use PACOTS: yes - Use low airways: no - Use high airways: no

Route

SBMQ SOCA

ID Type Via Altitude (ft/m) Position (lat/lon) Dist (leg/tot) Name
O SBMQ APT - 0 / 0 0.05064 / -51.07216 - / 0 nm MACAPA
O SOCA APT - 0 / 0 4.81981 / -52.36045 296 / 296 nm Cayenne Rochambeau

Altitude Profile

Advertisement - Login to hide

Weather


0- 5 10 15 20 25 30 35+ Temperature / °C

Clouds and Precipitation
Forecast for 2020-12-04 18:00 UTC. Updated 5 hours ago

Ground ~20,000 ft ~40,000 ft Winds

SBMQ

Details ICAO SBMQ (MCP)
Name Macapa, Alberto A Intl
Region Brazil
Timezone America/Belem (UTC-3.0)
Stats Elevation 56 ft / 17 m (AMSL)
Location 0.050621° -51.072100°
Runways 1
Magnetic Variation 19.460° W

METAR

SBMQ 042100Z 08010KT 9999 SCT020 31/23 Q1009

Decode

TAF

TAF SBMQ 041615Z 0418/0518 07010KT 9999 SCT025 FEW035TCU TX34/0418Z TN25/0509Z BECMG 0420/0422 FEW025 BECMG 0501/0503 04005KT SCT017 BECMG 0506/0508 36005KT BECMG 0512/0513 05010KT SCT025 BECMG 0516/0517 08013KT BKN025 FEW035TCU RMK PGB

Decode

Departure Runways

ID Width Length Bearing (true/mag) Surface Threshold Overrun Markings Lighting
08 148 ft / 45 m 6,896 ft / 2,102 m 57.22° / 76.68° ASPHALT 0 ft / 0 m 0 ft / 0 m APP EDGE THRESHOLD REIL-OMNI
26 148 ft / 45 m 6,896 ft / 2,102 m 237.22° / 256.68° ASPHALT 0 ft / 0 m 0 ft / 0 m APP EDGE THRESHOLD REIL-OMNI

SOCA

Details ICAO SOCA (CAY)
Name Cayenne-Felix Eboue Intl
Region French Guiana
Timezone America/Cayenne (UTC-3.0)
Stats Elevation 26 ft / 8 m (AMSL)
Location 4.820030° -52.361100°
Runways 1
Magnetic Variation 18.447° W

METAR

SOCA 042100Z AUTO 08004KT CAVOK 28/24 Q1011 NOSIG

Decode

TAF

TAF SOCA 041600Z 0418/0518 08010KT 9999 SCT020 PROB30 TEMPO 0418/0421 4000 SHRA SCT015TCU FM042200 VRB02KT 9999 SCT020 TEMPO 0506/0511 1000 BR BKN001 PROB30 TEMPO 0506/0512 4000 SHRA FEW015TCU FM051200 08010KT 9999 SCT020 TEMPO 0512/0518 3000 SHRA SCT015TCU

Decode

Destination Runways

ID Width Length Bearing (true/mag) Surface Threshold Overrun Markings Lighting
08 148 ft / 45 m 10,489 ft / 3,197 m 65.20° / 83.65° ASPHALT 0 ft / 0 m 0 ft / 0 m PREC-APP CENTERLINE EDGE THRESHOLD MALSR TDZ REIL-OMNI
26 148 ft / 45 m 10,489 ft / 3,197 m 245.20° / 263.65° ASPHALT 0 ft / 0 m 0 ft / 0 m APP CENTERLINE EDGE THRESHOLD REIL-OMNI

Popular Alternatives